sensor_id;sensor_type;location;lat;lon;timestamp;P1;durP1;ratioP1;P2;durP2;ratioP2
79212;SDS011;68639;52.380;9.822;2023-12-14T00:01:13;16.47;;;10.33;;
79212;SDS011;68639;52.380;9.822;2023-12-14T00:03:39;17.17;;;10.80;;
79212;SDS011;68639;52.380;9.822;2023-12-14T00:06:07;16.53;;;10.30;;
79212;SDS011;68639;52.380;9.822;2023-12-14T00:08:32;17.03;;;10.40;;
79212;SDS011;68639;52.380;9.822;2023-12-14T00:10:57;17.10;;;10.53;;
79212;SDS011;68639;52.380;9.822;2023-12-14T00:13:22;18.83;;;11.60;;
79212;SDS011;68639;52.380;9.822;2023-12-14T00:15:47;21.90;;;11.87;;
79212;SDS011;68639;52.380;9.822;2023-12-14T00:18:15;21.03;;;12.13;;
79212;SDS011;68639;52.380;9.822;2023-12-14T00:20:40;23.97;;;12.90;;
79212;SDS011;68639;52.380;9.822;2023-12-14T00:23:05;22.97;;;13.13;;
79212;SDS011;68639;52.380;9.822;2023-12-14T00:25:30;22.77;;;13.13;;
79212;SDS011;68639;52.380;9.822;2023-12-14T00:27:55;23.63;;;13.03;;
79212;SDS011;68639;52.380;9.822;2023-12-14T00:30:20;20.83;;;12.37;;
79212;SDS011;68639;52.380;9.822;2023-12-14T00:32:46;22.20;;;12.73;;
79212;SDS011;68639;52.380;9.822;2023-12-14T00:35:11;16.47;;;10.70;;
79212;SDS011;68639;52.380;9.822;2023-12-14T00:37:36;18.37;;;10.60;;
79212;SDS011;68639;52.380;9.822;2023-12-14T00:40:02;16.60;;;10.67;;
79212;SDS011;68639;52.380;9.822;2023-12-14T00:42:28;15.17;;;10.20;;
79212;SDS011;68639;52.380;9.822;2023-12-14T00:44:53;16.67;;;11.23;;
79212;SDS011;68639;52.380;9.822;2023-12-14T00:47:18;14.00;;;9.37;;
79212;SDS011;68639;52.380;9.822;2023-12-14T00:49:44;14.13;;;9.43;;
79212;SDS011;68639;52.380;9.822;2023-12-14T00:52:09;15.10;;;10.37;;
79212;SDS011;68639;52.380;9.822;2023-12-14T00:54:34;17.73;;;10.97;;
79212;SDS011;68639;52.380;9.822;2023-12-14T00:56:59;15.67;;;10.00;;
79212;SDS011;68639;52.380;9.822;2023-12-14T00:59:24;17.57;;;10.97;;
79212;SDS011;68639;52.380;9.822;2023-12-14T01:01:50;15.80;;;10.00;;
79212;SDS011;68639;52.380;9.822;2023-12-14T01:04:15;13.97;;;9.80;;
79212;SDS011;68639;52.380;9.822;2023-12-14T01:06:40;15.10;;;9.27;;
79212;SDS011;68639;52.380;9.822;2023-12-14T01:09:05;15.40;;;9.80;;
79212;SDS011;68639;52.380;9.822;2023-12-14T01:11:30;12.60;;;8.73;;
79212;SDS011;68639;52.380;9.822;2023-12-14T01:13:55;13.87;;;8.50;;
79212;SDS011;68639;52.380;9.822;2023-12-14T01:16:21;12.93;;;9.00;;
79212;SDS011;68639;52.380;9.822;2023-12-14T01:18:46;11.47;;;7.97;;
79212;SDS011;68639;52.380;9.822;2023-12-14T01:21:11;13.10;;;9.10;;
79212;SDS011;68639;52.380;9.822;2023-12-14T01:23:37;13.47;;;9.00;;
79212;SDS011;68639;52.380;9.822;2023-12-14T01:26:03;13.43;;;9.20;;
79212;SDS011;68639;52.380;9.822;2023-12-14T01:28:28;15.03;;;9.70;;
79212;SDS011;68639;52.380;9.822;2023-12-14T01:30:53;11.13;;;8.30;;
79212;SDS011;68639;52.380;9.822;2023-12-14T01:33:18;16.30;;;9.20;;
79212;SDS011;68639;52.380;9.822;2023-12-14T01:35:44;19.80;;;10.57;;
79212;SDS011;68639;52.380;9.822;2023-12-14T01:38:09;17.50;;;10.13;;
79212;SDS011;68639;52.380;9.822;2023-12-14T01:40:35;15.00;;;9.87;;
79212;SDS011;68639;52.380;9.822;2023-12-14T01:43:09;17.37;;;10.53;;
79212;SDS011;68639;52.380;9.822;2023-12-14T01:45:37;19.33;;;11.70;;
79212;SDS011;68639;52.380;9.822;2023-12-14T01:48:03;19.27;;;10.90;;
79212;SDS011;68639;52.380;9.822;2023-12-14T01:50:28;21.77;;;12.53;;
79212;SDS011;68639;52.380;9.822;2023-12-14T01:52:54;18.70;;;11.40;;
79212;SDS011;68639;52.380;9.822;2023-12-14T01:55:19;22.63;;;12.37;;
79212;SDS011;68639;52.380;9.822;2023-12-14T01:57:45;18.53;;;11.20;;
79212;SDS011;68639;52.380;9.822;2023-12-14T02:00:13;20.30;;;11.83;;
79212;SDS011;68639;52.380;9.822;2023-12-14T02:02:39;16.37;;;10.33;;
79212;SDS011;68639;52.380;9.822;2023-12-14T02:05:05;17.23;;;10.87;;
79212;SDS011;68639;52.380;9.822;2023-12-14T02:07:30;20.10;;;11.27;;
79212;SDS011;68639;52.380;9.822;2023-12-14T02:09:55;23.00;;;12.30;;
79212;SDS011;68639;52.380;9.822;2023-12-14T02:12:21;25.27;;;12.90;;
79212;SDS011;68639;52.380;9.822;2023-12-14T02:14:48;19.97;;;11.27;;
79212;SDS011;68639;52.380;9.822;2023-12-14T02:17:13;20.60;;;11.10;;
79212;SDS011;68639;52.380;9.822;2023-12-14T02:19:38;19.93;;;11.53;;
79212;SDS011;68639;52.380;9.822;2023-12-14T02:22:03;21.27;;;12.03;;
79212;SDS011;68639;52.380;9.822;2023-12-14T02:24:28;19.57;;;11.43;;
79212;SDS011;68639;52.380;9.822;2023-12-14T02:26:54;20.17;;;12.33;;
79212;SDS011;68639;52.380;9.822;2023-12-14T02:29:19;21.20;;;11.43;;
79212;SDS011;68639;52.380;9.822;2023-12-14T02:31:44;22.60;;;12.63;;
79212;SDS011;68639;52.380;9.822;2023-12-14T02:34:11;23.43;;;12.43;;
79212;SDS011;68639;52.380;9.822;2023-12-14T02:36:36;20.37;;;11.57;;
79212;SDS011;68639;52.380;9.822;2023-12-14T02:39:02;26.53;;;13.80;;
79212;SDS011;68639;52.380;9.822;2023-12-14T02:41:27;23.60;;;13.80;;
79212;SDS011;68639;52.380;9.822;2023-12-14T02:43:52;21.97;;;12.93;;
79212;SDS011;68639;52.380;9.822;2023-12-14T02:46:17;23.53;;;13.23;;
79212;SDS011;68639;52.380;9.822;2023-12-14T02:48:43;19.43;;;11.77;;
79212;SDS011;68639;52.380;9.822;2023-12-14T02:51:12;22.50;;;12.60;;
79212;SDS011;68639;52.380;9.822;2023-12-14T02:53:37;29.87;;;14.00;;
79212;SDS011;68639;52.380;9.822;2023-12-14T02:56:02;22.83;;;13.57;;
79212;SDS011;68639;52.380;9.822;2023-12-14T02:58:27;25.63;;;13.77;;
79212;SDS011;68639;52.380;9.822;2023-12-14T03:00:52;23.53;;;13.23;;
79212;SDS011;68639;52.380;9.822;2023-12-14T03:03:18;21.67;;;12.67;;
79212;SDS011;68639;52.380;9.822;2023-12-14T03:05:43;20.70;;;12.57;;
79212;SDS011;68639;52.380;9.822;2023-12-14T03:08:08;23.13;;;13.60;;
79212;SDS011;68639;52.380;9.822;2023-12-14T03:10:33;23.50;;;13.90;;
79212;SDS011;68639;52.380;9.822;2023-12-14T03:12:58;21.23;;;12.47;;
79212;SDS011;68639;52.380;9.822;2023-12-14T03:15:23;19.63;;;12.60;;
79212;SDS011;68639;52.380;9.822;2023-12-14T03:17:49;19.27;;;12.03;;
79212;SDS011;68639;52.380;9.822;2023-12-14T03:20:14;19.50;;;11.93;;
79212;SDS011;68639;52.380;9.822;2023-12-14T03:22:39;20.07;;;12.97;;
79212;SDS011;68639;52.380;9.822;2023-12-14T03:25:05;19.60;;;12.37;;
79212;SDS011;68639;52.380;9.822;2023-12-14T03:27:30;17.47;;;11.53;;
79212;SDS011;68639;52.380;9.822;2023-12-14T03:29:55;20.93;;;13.33;;
79212;SDS011;68639;52.380;9.822;2023-12-14T03:32:20;23.13;;;13.90;;
79212;SDS011;68639;52.380;9.822;2023-12-14T03:34:46;24.00;;;13.80;;
79212;SDS011;68639;52.380;9.822;2023-12-14T03:37:11;20.23;;;13.43;;
79212;SDS011;68639;52.380;9.822;2023-12-14T03:39:36;22.03;;;13.53;;
79212;SDS011;68639;52.380;9.822;2023-12-14T03:42:01;19.47;;;12.80;;
79212;SDS011;68639;52.380;9.822;2023-12-14T03:44:27;19.70;;;13.10;;
79212;SDS011;68639;52.380;9.822;2023-12-14T03:46:52;22.57;;;14.03;;
79212;SDS011;68639;52.380;9.822;2023-12-14T03:49:19;18.83;;;12.00;;
79212;SDS011;68639;52.380;9.822;2023-12-14T03:51:44;19.90;;;12.20;;
79212;SDS011;68639;52.380;9.822;2023-12-14T03:54:09;19.10;;;12.20;;
79212;SDS011;68639;52.380;9.822;2023-12-14T03:56:34;22.23;;;13.07;;
79212;SDS011;68639;52.380;9.822;2023-12-14T03:58:59;21.03;;;12.67;;
79212;SDS011;68639;52.380;9.822;2023-12-14T04:01:25;21.93;;;13.10;;
79212;SDS011;68639;52.380;9.822;2023-12-14T04:03:50;22.50;;;12.83;;
79212;SDS011;68639;52.380;9.822;2023-12-14T04:06:15;20.77;;;13.00;;
79212;SDS011;68639;52.380;9.822;2023-12-14T04:08:41;21.93;;;13.27;;
79212;SDS011;68639;52.380;9.822;2023-12-14T04:11:06;19.83;;;12.50;;
79212;SDS011;68639;52.380;9.822;2023-12-14T04:13:31;21.00;;;12.37;;
79212;SDS011;68639;52.380;9.822;2023-12-14T04:15:57;17.27;;;10.90;;
79212;SDS011;68639;52.380;9.822;2023-12-14T04:18:22;17.73;;;11.57;;
79212;SDS011;68639;52.380;9.822;2023-12-14T04:20:47;17.53;;;10.90;;
79212;SDS011;68639;52.380;9.822;2023-12-14T04:23:13;20.73;;;12.63;;
79212;SDS011;68639;52.380;9.822;2023-12-14T04:25:38;20.50;;;11.87;;
79212;SDS011;68639;52.380;9.822;2023-12-14T04:28:03;16.50;;;10.80;;
79212;SDS011;68639;52.380;9.822;2023-12-14T04:30:28;18.73;;;10.43;;
79212;SDS011;68639;52.380;9.822;2023-12-14T04:32:53;12.67;;;8.80;;
79212;SDS011;68639;52.380;9.822;2023-12-14T04:35:19;15.30;;;9.93;;
79212;SDS011;68639;52.380;9.822;2023-12-14T04:37:47;13.60;;;9.20;;
79212;SDS011;68639;52.380;9.822;2023-12-14T04:40:12;11.37;;;7.03;;
79212;SDS011;68639;52.380;9.822;2023-12-14T04:42:37;13.73;;;8.40;;
79212;SDS011;68639;52.380;9.822;2023-12-14T04:45:02;15.67;;;8.53;;
79212;SDS011;68639;52.380;9.822;2023-12-14T04:47:28;12.53;;;8.27;;
79212;SDS011;68639;52.380;9.822;2023-12-14T04:49:53;14.10;;;8.70;;
79212;SDS011;68639;52.380;9.822;2023-12-14T04:52:19;13.63;;;7.83;;
79212;SDS011;68639;52.380;9.822;2023-12-14T04:54:44;12.60;;;8.40;;
79212;SDS011;68639;52.380;9.822;2023-12-14T04:57:09;12.10;;;7.07;;
79212;SDS011;68639;52.380;9.822;2023-12-14T04:59:34;14.23;;;9.37;;
79212;SDS011;68639;52.380;9.822;2023-12-14T05:01:59;15.97;;;8.40;;
79212;SDS011;68639;52.380;9.822;2023-12-14T05:04:25;12.30;;;7.97;;
79212;SDS011;68639;52.380;9.822;2023-12-14T05:06:50;13.27;;;7.87;;
79212;SDS011;68639;52.380;9.822;2023-12-14T05:09:15;17.47;;;9.97;;
79212;SDS011;68639;52.380;9.822;2023-12-14T05:11:40;17.00;;;10.00;;
79212;SDS011;68639;52.380;9.822;2023-12-14T05:14:06;15.23;;;8.53;;
79212;SDS011;68639;52.380;9.822;2023-12-14T05:16:31;16.03;;;9.17;;
79212;SDS011;68639;52.380;9.822;2023-12-14T05:18:56;14.70;;;8.50;;
79212;SDS011;68639;52.380;9.822;2023-12-14T05:21:24;14.97;;;9.43;;
79212;SDS011;68639;52.380;9.822;2023-12-14T05:23:49;15.33;;;9.90;;
79212;SDS011;68639;52.380;9.822;2023-12-14T05:26:14;16.93;;;10.63;;
79212;SDS011;68639;52.380;9.822;2023-12-14T05:28:40;17.07;;;9.97;;
79212;SDS011;68639;52.380;9.822;2023-12-14T05:31:05;14.70;;;9.47;;
79212;SDS011;68639;52.380;9.822;2023-12-14T05:33:30;14.73;;;9.73;;
79212;SDS011;68639;52.380;9.822;2023-12-14T05:35:56;13.77;;;8.77;;
79212;SDS011;68639;52.380;9.822;2023-12-14T05:38:21;11.53;;;7.43;;
79212;SDS011;68639;52.380;9.822;2023-12-14T05:40:46;16.63;;;9.70;;
79212;SDS011;68639;52.380;9.822;2023-12-14T05:43:12;14.07;;;8.27;;
79212;SDS011;68639;52.380;9.822;2023-12-14T05:45:37;14.13;;;8.47;;
79212;SDS011;68639;52.380;9.822;2023-12-14T05:48:02;13.33;;;8.53;;
79212;SDS011;68639;52.380;9.822;2023-12-14T05:50:30;17.33;;;9.13;;
79212;SDS011;68639;52.380;9.822;2023-12-14T05:52:55;13.30;;;8.83;;
79212;SDS011;68639;52.380;9.822;2023-12-14T05:55:20;16.87;;;8.10;;
79212;SDS011;68639;52.380;9.822;2023-12-14T05:57:47;15.80;;;9.07;;
79212;SDS011;68639;52.380;9.822;2023-12-14T06:00:12;14.50;;;9.88;;
79212;SDS011;68639;52.380;9.822;2023-12-14T06:02:38;12.40;;;9.10;;
79212;SDS011;68639;52.380;9.822;2023-12-14T06:05:03;13.90;;;9.20;;
79212;SDS011;68639;52.380;9.822;2023-12-14T06:07:29;11.07;;;7.63;;
79212;SDS011;68639;52.380;9.822;2023-12-14T06:09:54;12.67;;;7.83;;
79212;SDS011;68639;52.380;9.822;2023-12-14T06:12:19;10.97;;;7.23;;
79212;SDS011;68639;52.380;9.822;2023-12-14T06:14:44;12.17;;;7.87;;
79212;SDS011;68639;52.380;9.822;2023-12-14T06:17:10;11.17;;;7.80;;
79212;SDS011;68639;52.380;9.822;2023-12-14T06:19:35;10.93;;;7.77;;
79212;SDS011;68639;52.380;9.822;2023-12-14T06:22:00;10.30;;;7.83;;
79212;SDS011;68639;52.380;9.822;2023-12-14T06:24:25;11.90;;;8.37;;
79212;SDS011;68639;52.380;9.822;2023-12-14T06:26:51;11.27;;;8.33;;
79212;SDS011;68639;52.380;9.822;2023-12-14T06:29:16;12.47;;;9.37;;
79212;SDS011;68639;52.380;9.822;2023-12-14T06:31:41;13.93;;;9.33;;
79212;SDS011;68639;52.380;9.822;2023-12-14T06:34:06;13.37;;;9.20;;
79212;SDS011;68639;52.380;9.822;2023-12-14T06:36:32;13.87;;;9.07;;
79212;SDS011;68639;52.380;9.822;2023-12-14T06:38:57;12.00;;;8.80;;
79212;SDS011;68639;52.380;9.822;2023-12-14T06:41:23;13.27;;;8.10;;
79212;SDS011;68639;52.380;9.822;2023-12-14T06:43:49;11.30;;;8.47;;
79212;SDS011;68639;52.380;9.822;2023-12-14T06:46:14;15.03;;;9.17;;
79212;SDS011;68639;52.380;9.822;2023-12-14T06:48:39;12.03;;;8.83;;
79212;SDS011;68639;52.380;9.822;2023-12-14T06:51:05;13.33;;;9.57;;
79212;SDS011;68639;52.380;9.822;2023-12-14T06:53:30;12.40;;;7.83;;
79212;SDS011;68639;52.380;9.822;2023-12-14T06:55:55;12.13;;;7.57;;
79212;SDS011;68639;52.380;9.822;2023-12-14T06:58:20;13.87;;;8.70;;
79212;SDS011;68639;52.380;9.822;2023-12-14T07:00:46;11.50;;;8.27;;
79212;SDS011;68639;52.380;9.822;2023-12-14T07:03:12;11.90;;;8.00;;
79212;SDS011;68639;52.380;9.822;2023-12-14T07:05:37;11.70;;;8.60;;
79212;SDS011;68639;52.380;9.822;2023-12-14T07:08:03;12.30;;;9.03;;
79212;SDS011;68639;52.380;9.822;2023-12-14T07:10:28;11.47;;;8.50;;
79212;SDS011;68639;52.380;9.822;2023-12-14T07:12:53;14.40;;;9.97;;
79212;SDS011;68639;52.380;9.822;2023-12-14T07:15:19;15.23;;;10.37;;
79212;SDS011;68639;52.380;9.822;2023-12-14T07:17:44;13.63;;;9.93;;
79212;SDS011;68639;52.380;9.822;2023-12-14T07:20:09;14.37;;;10.03;;
79212;SDS011;68639;52.380;9.822;2023-12-14T07:22:35;14.77;;;9.40;;
79212;SDS011;68639;52.380;9.822;2023-12-14T07:25:00;12.93;;;9.57;;
79212;SDS011;68639;52.380;9.822;2023-12-14T07:27:25;12.17;;;9.07;;
79212;SDS011;68639;52.380;9.822;2023-12-14T07:29:50;15.03;;;10.17;;
79212;SDS011;68639;52.380;9.822;2023-12-14T07:32:15;15.27;;;10.73;;
79212;SDS011;68639;52.380;9.822;2023-12-14T07:34:41;13.83;;;9.83;;
79212;SDS011;68639;52.380;9.822;2023-12-14T07:37:06;14.10;;;9.40;;
79212;SDS011;68639;52.380;9.822;2023-12-14T07:39:31;16.20;;;9.30;;
79212;SDS011;68639;52.380;9.822;2023-12-14T07:41:56;13.00;;;9.27;;
79212;SDS011;68639;52.380;9.822;2023-12-14T07:44:22;14.07;;;9.17;;
79212;SDS011;68639;52.380;9.822;2023-12-14T07:46:47;14.37;;;9.63;;
79212;SDS011;68639;52.380;9.822;2023-12-14T07:49:13;14.07;;;9.23;;
79212;SDS011;68639;52.380;9.822;2023-12-14T07:51:38;13.67;;;8.63;;
79212;SDS011;68639;52.380;9.822;2023-12-14T07:54:03;11.70;;;8.53;;
79212;SDS011;68639;52.380;9.822;2023-12-14T07:56:29;12.33;;;8.60;;
79212;SDS011;68639;52.380;9.822;2023-12-14T07:58:54;15.57;;;8.90;;
79212;SDS011;68639;52.380;9.822;2023-12-14T08:01:19;11.40;;;7.87;;
79212;SDS011;68639;52.380;9.822;2023-12-14T08:03:45;13.73;;;8.30;;
79212;SDS011;68639;52.380;9.822;2023-12-14T08:06:11;11.83;;;7.80;;
79212;SDS011;68639;52.380;9.822;2023-12-14T08:08:36;15.43;;;7.80;;
79212;SDS011;68639;52.380;9.822;2023-12-14T08:11:02;13.20;;;8.10;;
79212;SDS011;68639;52.380;9.822;2023-12-14T08:13:28;12.80;;;8.57;;
79212;SDS011;68639;52.380;9.822;2023-12-14T08:15:53;13.00;;;8.23;;
79212;SDS011;68639;52.380;9.822;2023-12-14T08:18:18;14.57;;;8.60;;
79212;SDS011;68639;52.380;9.822;2023-12-14T08:20:43;11.03;;;7.30;;
79212;SDS011;68639;52.380;9.822;2023-12-14T08:23:08;14.83;;;7.97;;
79212;SDS011;68639;52.380;9.822;2023-12-14T08:25:34;13.20;;;7.67;;
79212;SDS011;68639;52.380;9.822;2023-12-14T08:28:00;15.50;;;8.53;;
79212;SDS011;68639;52.380;9.822;2023-12-14T08:30:25;13.10;;;7.90;;
79212;SDS011;68639;52.380;9.822;2023-12-14T08:32:50;10.83;;;7.70;;
79212;SDS011;68639;52.380;9.822;2023-12-14T08:35:16;12.00;;;7.10;;
79212;SDS011;68639;52.380;9.822;2023-12-14T08:37:41;11.50;;;7.30;;
79212;SDS011;68639;52.380;9.822;2023-12-14T08:40:06;11.30;;;6.97;;
79212;SDS011;68639;52.380;9.822;2023-12-14T08:42:32;10.57;;;6.63;;
79212;SDS011;68639;52.380;9.822;2023-12-14T08:44:57;11.70;;;7.20;;
79212;SDS011;68639;52.380;9.822;2023-12-14T08:47:22;11.30;;;6.80;;
79212;SDS011;68639;52.380;9.822;2023-12-14T08:49:48;13.73;;;8.17;;
79212;SDS011;68639;52.380;9.822;2023-12-14T08:52:13;9.90;;;6.97;;
79212;SDS011;68639;52.380;9.822;2023-12-14T08:54:39;10.67;;;6.83;;
79212;SDS011;68639;52.380;9.822;2023-12-14T08:57:04;10.80;;;7.10;;
79212;SDS011;68639;52.380;9.822;2023-12-14T08:59:30;10.53;;;6.80;;
79212;SDS011;68639;52.380;9.822;2023-12-14T09:01:55;10.87;;;7.00;;
79212;SDS011;68639;52.380;9.822;2023-12-14T09:04:20;9.43;;;6.57;;
79212;SDS011;68639;52.380;9.822;2023-12-14T09:06:46;11.50;;;7.13;;
79212;SDS011;68639;52.380;9.822;2023-12-14T09:09:11;10.03;;;6.30;;
79212;SDS011;68639;52.380;9.822;2023-12-14T09:11:36;12.30;;;7.13;;
79212;SDS011;68639;52.380;9.822;2023-12-14T09:14:02;9.83;;;6.40;;
79212;SDS011;68639;52.380;9.822;2023-12-14T09:16:27;9.97;;;6.43;;
79212;SDS011;68639;52.380;9.822;2023-12-14T09:18:52;12.30;;;5.93;;
79212;SDS011;68639;52.380;9.822;2023-12-14T09:21:17;11.07;;;6.40;;
79212;SDS011;68639;52.380;9.822;2023-12-14T09:23:43;11.70;;;6.10;;
79212;SDS011;68639;52.380;9.822;2023-12-14T09:26:08;10.10;;;5.97;;
79212;SDS011;68639;52.380;9.822;2023-12-14T09:28:33;11.37;;;6.33;;
79212;SDS011;68639;52.380;9.822;2023-12-14T09:30:58;13.10;;;6.47;;
79212;SDS011;68639;52.380;9.822;2023-12-14T09:33:23;13.23;;;6.50;;
79212;SDS011;68639;52.380;9.822;2023-12-14T09:35:48;10.77;;;6.57;;
79212;SDS011;68639;52.380;9.822;2023-12-14T09:38:14;10.77;;;6.90;;
79212;SDS011;68639;52.380;9.822;2023-12-14T09:40:42;14.07;;;6.80;;
79212;SDS011;68639;52.380;9.822;2023-12-14T09:43:08;16.57;;;7.43;;
79212;SDS011;68639;52.380;9.822;2023-12-14T09:45:33;10.80;;;6.80;;
79212;SDS011;68639;52.380;9.822;2023-12-14T09:48:00;11.93;;;6.43;;
79212;SDS011;68639;52.380;9.822;2023-12-14T09:50:25;10.97;;;6.17;;
79212;SDS011;68639;52.380;9.822;2023-12-14T09:52:51;10.17;;;5.87;;
79212;SDS011;68639;52.380;9.822;2023-12-14T09:55:16;10.83;;;6.00;;
79212;SDS011;68639;52.380;9.822;2023-12-14T09:57:41;10.90;;;6.23;;
79212;SDS011;68639;52.380;9.822;2023-12-14T10:00:07;11.73;;;6.90;;
79212;SDS011;68639;52.380;9.822;2023-12-14T10:02:36;9.63;;;6.37;;
79212;SDS011;68639;52.380;9.822;2023-12-14T10:05:01;9.63;;;5.90;;
79212;SDS011;68639;52.380;9.822;2023-12-14T10:07:26;8.90;;;5.60;;
79212;SDS011;68639;52.380;9.822;2023-12-14T10:09:52;9.10;;;5.73;;
79212;SDS011;68639;52.380;9.822;2023-12-14T10:12:18;9.10;;;5.80;;
79212;SDS011;68639;52.380;9.822;2023-12-14T10:14:43;9.63;;;6.07;;
79212;SDS011;68639;52.380;9.822;2023-12-14T10:17:19;7.03;;;4.80;;
79212;SDS011;68639;52.380;9.822;2023-12-14T10:19:45;8.67;;;5.50;;
79212;SDS011;68639;52.380;9.822;2023-12-14T10:22:11;9.90;;;6.13;;
79212;SDS011;68639;52.380;9.822;2023-12-14T10:24:38;9.70;;;5.13;;
79212;SDS011;68639;52.380;9.822;2023-12-14T10:27:06;9.83;;;5.63;;
79212;SDS011;68639;52.380;9.822;2023-12-14T10:29:36;10.70;;;6.20;;
79212;SDS011;68639;52.380;9.822;2023-12-14T10:32:03;12.10;;;6.43;;
79212;SDS011;68639;52.380;9.822;2023-12-14T10:34:31;10.50;;;6.33;;
79212;SDS011;68639;52.380;9.822;2023-12-14T10:36:56;12.00;;;6.83;;
79212;SDS011;68639;52.380;9.822;2023-12-14T10:39:21;14.43;;;7.30;;
79212;SDS011;68639;52.380;9.822;2023-12-14T10:41:47;12.90;;;6.20;;
79212;SDS011;68639;52.380;9.822;2023-12-14T10:44:13;12.30;;;6.33;;
79212;SDS011;68639;52.380;9.822;2023-12-14T10:46:39;11.17;;;5.83;;
79212;SDS011;68639;52.380;9.822;2023-12-14T10:49:05;9.87;;;5.90;;
79212;SDS011;68639;52.380;9.822;2023-12-14T10:51:31;9.47;;;6.03;;
79212;SDS011;68639;52.380;9.822;2023-12-14T10:53:57;11.13;;;5.77;;
79212;SDS011;68639;52.380;9.822;2023-12-14T10:56:22;10.23;;;6.57;;
79212;SDS011;68639;52.380;9.822;2023-12-14T11:01:16;12.43;;;6.53;;
79212;SDS011;68639;52.380;9.822;2023-12-14T11:03:42;9.70;;;5.93;;
79212;SDS011;68639;52.380;9.822;2023-12-14T11:08:50;12.53;;;6.60;;
79212;SDS011;68639;52.380;9.822;2023-12-14T11:11:16;10.47;;;6.37;;
79212;SDS011;68639;52.380;9.822;2023-12-14T11:13:45;10.37;;;5.80;;
79212;SDS011;68639;52.380;9.822;2023-12-14T11:16:11;7.93;;;5.17;;
79212;SDS011;68639;52.380;9.822;2023-12-14T11:18:36;12.20;;;6.27;;
79212;SDS011;68639;52.380;9.822;2023-12-14T11:21:01;10.27;;;6.43;;
79212;SDS011;68639;52.380;9.822;2023-12-14T11:23:27;10.83;;;6.03;;
79212;SDS011;68639;52.380;9.822;2023-12-14T11:25:58;13.37;;;5.80;;
79212;SDS011;68639;52.380;9.822;2023-12-14T11:28:25;11.60;;;6.00;;
79212;SDS011;68639;52.380;9.822;2023-12-14T11:30:50;11.20;;;6.50;;
79212;SDS011;68639;52.380;9.822;2023-12-14T11:33:16;12.27;;;6.27;;
79212;SDS011;68639;52.380;9.822;2023-12-14T11:35:41;10.40;;;6.17;;
79212;SDS011;68639;52.380;9.822;2023-12-14T11:38:06;11.80;;;6.60;;
79212;SDS011;68639;52.380;9.822;2023-12-14T11:40:42;10.43;;;6.47;;
79212;SDS011;68639;52.380;9.822;2023-12-14T11:43:07;12.87;;;6.57;;
79212;SDS011;68639;52.380;9.822;2023-12-14T11:45:39;11.80;;;6.77;;
79212;SDS011;68639;52.380;9.822;2023-12-14T11:48:08;10.10;;;6.23;;
79212;SDS011;68639;52.380;9.822;2023-12-14T11:50:35;11.50;;;6.43;;
79212;SDS011;68639;52.380;9.822;2023-12-14T11:53:01;11.37;;;6.30;;
79212;SDS011;68639;52.380;9.822;2023-12-14T11:55:28;10.80;;;6.43;;
79212;SDS011;68639;52.380;9.822;2023-12-14T11:57:53;12.37;;;7.20;;
79212;SDS011;68639;52.380;9.822;2023-12-14T12:00:22;13.37;;;6.97;;
79212;SDS011;68639;52.380;9.822;2023-12-14T12:02:47;12.10;;;6.70;;
79212;SDS011;68639;52.380;9.822;2023-12-14T12:05:13;12.70;;;7.10;;
79212;SDS011;68639;52.380;9.822;2023-12-14T12:07:43;10.77;;;6.73;;
79212;SDS011;68639;52.380;9.822;2023-12-14T12:10:09;12.63;;;6.57;;
79212;SDS011;68639;52.380;9.822;2023-12-14T12:12:34;13.57;;;7.17;;
79212;SDS011;68639;52.380;9.822;2023-12-14T12:15:00;13.57;;;6.30;;
79212;SDS011;68639;52.380;9.822;2023-12-14T12:17:26;12.17;;;6.50;;
79212;SDS011;68639;52.380;9.822;2023-12-14T12:19:51;9.70;;;6.37;;
79212;SDS011;68639;52.380;9.822;2023-12-14T12:22:16;10.37;;;5.97;;
79212;SDS011;68639;52.380;9.822;2023-12-14T12:24:42;15.07;;;6.60;;
79212;SDS011;68639;52.380;9.822;2023-12-14T12:27:07;12.00;;;6.37;;
79212;SDS011;68639;52.380;9.822;2023-12-14T12:29:34;11.23;;;6.43;;
79212;SDS011;68639;52.380;9.822;2023-12-14T12:31:59;10.80;;;5.77;;
79212;SDS011;68639;52.380;9.822;2023-12-14T12:34:24;11.10;;;6.00;;
79212;SDS011;68639;52.380;9.822;2023-12-14T12:36:49;9.63;;;5.97;;
79212;SDS011;68639;52.380;9.822;2023-12-14T12:39:14;10.00;;;5.80;;
79212;SDS011;68639;52.380;9.822;2023-12-14T12:41:40;12.27;;;6.33;;
79212;SDS011;68639;52.380;9.822;2023-12-14T12:44:05;9.37;;;5.60;;
79212;SDS011;68639;52.380;9.822;2023-12-14T12:46:32;11.43;;;6.20;;
79212;SDS011;68639;52.380;9.822;2023-12-14T12:48:58;10.20;;;5.87;;
79212;SDS011;68639;52.380;9.822;2023-12-14T12:51:24;14.47;;;6.30;;
79212;SDS011;68639;52.380;9.822;2023-12-14T12:53:50;13.53;;;5.97;;
79212;SDS011;68639;52.380;9.822;2023-12-14T12:56:16;14.17;;;6.27;;
79212;SDS011;68639;52.380;9.822;2023-12-14T12:58:41;10.50;;;6.30;;
79212;SDS011;68639;52.380;9.822;2023-12-14T13:01:06;14.00;;;6.70;;
79212;SDS011;68639;52.380;9.822;2023-12-14T13:03:32;12.50;;;6.70;;
79212;SDS011;68639;52.380;9.822;2023-12-14T13:05:57;13.57;;;6.83;;
79212;SDS011;68639;52.380;9.822;2023-12-14T13:08:22;14.27;;;6.33;;
79212;SDS011;68639;52.380;9.822;2023-12-14T13:10:47;14.33;;;6.83;;
79212;SDS011;68639;52.380;9.822;2023-12-14T13:13:13;17.63;;;7.40;;
79212;SDS011;68639;52.380;9.822;2023-12-14T13:15:39;13.77;;;7.17;;
79212;SDS011;68639;52.380;9.822;2023-12-14T13:18:04;14.17;;;7.53;;
79212;SDS011;68639;52.380;9.822;2023-12-14T13:20:29;13.53;;;6.90;;
79212;SDS011;68639;52.380;9.822;2023-12-14T13:22:55;15.20;;;6.50;;
79212;SDS011;68639;52.380;9.822;2023-12-14T13:25:20;15.13;;;6.37;;
79212;SDS011;68639;52.380;9.822;2023-12-14T13:27:47;12.83;;;6.77;;
79212;SDS011;68639;52.380;9.822;2023-12-14T13:30:12;14.30;;;7.60;;
79212;SDS011;68639;52.380;9.822;2023-12-14T13:32:42;16.50;;;7.53;;
79212;SDS011;68639;52.380;9.822;2023-12-14T13:35:07;15.13;;;7.23;;
79212;SDS011;68639;52.380;9.822;2023-12-14T13:37:33;15.03;;;7.67;;
79212;SDS011;68639;52.380;9.822;2023-12-14T13:39:59;15.57;;;7.67;;
79212;SDS011;68639;52.380;9.822;2023-12-14T13:42:24;13.00;;;8.83;;
79212;SDS011;68639;52.380;9.822;2023-12-14T13:44:49;14.20;;;6.90;;
79212;SDS011;68639;52.380;9.822;2023-12-14T13:47:14;15.57;;;7.40;;
79212;SDS011;68639;52.380;9.822;2023-12-14T13:49:39;13.23;;;7.07;;
79212;SDS011;68639;52.380;9.822;2023-12-14T13:52:05;13.90;;;7.60;;
79212;SDS011;68639;52.380;9.822;2023-12-14T13:54:30;14.53;;;7.50;;
79212;SDS011;68639;52.380;9.822;2023-12-14T13:56:55;14.47;;;7.97;;
79212;SDS011;68639;52.380;9.822;2023-12-14T13:59:20;14.73;;;7.43;;
79212;SDS011;68639;52.380;9.822;2023-12-14T14:01:46;12.23;;;7.40;;
79212;SDS011;68639;52.380;9.822;2023-12-14T14:04:15;17.30;;;8.07;;
79212;SDS011;68639;52.380;9.822;2023-12-14T14:06:40;17.50;;;8.73;;
79212;SDS011;68639;52.380;9.822;2023-12-14T14:09:05;17.17;;;7.80;;
79212;SDS011;68639;52.380;9.822;2023-12-14T14:11:31;21.00;;;11.13;;
79212;SDS011;68639;52.380;9.822;2023-12-14T14:13:56;18.30;;;9.27;;
79212;SDS011;68639;52.380;9.822;2023-12-14T14:16:21;16.33;;;8.50;;
79212;SDS011;68639;52.380;9.822;2023-12-14T14:18:46;15.77;;;8.73;;
79212;SDS011;68639;52.380;9.822;2023-12-14T14:21:12;19.53;;;8.77;;
79212;SDS011;68639;52.380;9.822;2023-12-14T14:23:37;20.27;;;9.23;;
79212;SDS011;68639;52.380;9.822;2023-12-14T14:26:02;15.40;;;9.13;;